Corpus Christi International Airport
KCRP : rendu visible

Aérodrome :











RETROUVEZ-NOUS SUR...

 
LOGIN :

S'inscrire | Disclaimer

   EN    FR    IT 

 









Légende :    VFR   VFR Marginal   IFR   IFR Intensif   IFR Très Intensif
Visi : 
Plafond : 
>= 8 km
>= 3000ft
5 à 8 km
1000 à 3000 ft
1500m à 5 km
500 à 1000 ft
800 à 1500m
200 à 500 ft
< 800m
< 200 ft
Symboles :   Orages  Brouillard  Fortes neiges  Fortes précipitations  Vent > 20 kt






- Altitude de l'aérodrome : 44 ft
- Code IATA : CRP


KCRP - Corpus Christi International

DERNIER METAR :
  • 100951Z 12005KT 10SM -RA FEW012 OVC130 21/19 A2989 RMK AO2 TSE03 SLP121 TS DSIPT P0003 T02110194

METARs EXPIRÉS :
  • 100943Z 07003KT 10SM -RA SCT012 OVC130 21/20 A2990 RMK AO2 TSE03 TS DSIPT P0003 T02060200
  • 100903Z 36004KT 10SM -RA BKN012 OVC110 21/19 A2991 RMK AO2 TSE03 OCNL LTGIC DSNT SW TS DSIPT CB DSNT SW MOV NE P0001 T02060194
  • 100851Z 34004KT 10SM -TSRA OVC014 21/19 A2992 RMK AO2 RAB27 TSB38 SLP129 OCNL LTGIC DSNT SW W TS DSNT W MOV NE CB DSNT SW MOV NE P0000 60000 T02060189 51012
  • 100838Z 32005KT 10SM -TSRA OVC014 21/19 A2993 RMK AO2 LTG DSNT SW RAB27 TSB38 OCNL LTGIC DSNT SW W TS DSNT W MOV NE CB DSNT SW MOV NE P0000 T02110189
  • 100751Z 34008KT 10SM OVC017 21/19 A2991 RMK AO2 SLP127 T02110194

TAF KCRP
Valide du 10 à 09h jusqu'au 11 à 06h UTC


100848Z 1009/1106 02006KT P6SM -TSRA OVC015CB
FM100930 03007KT P6SM -SHRA OVC015
FM101200 07014KT P6SM OVC015



MET'MAP, la Météo Aéronautique d'un coup d'oeil ! - Copyright ORBIFLY Décembre 2007 - Disclaimer

ORBIFLY MET'MAP TEAM :

Programmation & Développement : Alexandra Zaïnal
Sur une idée originale de : Baudouin d'Aumeries
Assistance à la programmation : Marc-Olivier Méhu
Soutien technique & logistique : Manuel Goepfert

Contact : metmap@orbifly.com




SOURCES & CREDITS :

   NOAA       Earth
Advisory